sensor_id;sensor_type;location;lat;lon;timestamp;P1;durP1;ratioP1;P2;durP2;ratioP2
10945;SDS011;5525;42.648;23.368;2023-02-12T00:00:48;11.52;;;6.30;;
10945;SDS011;5525;42.648;23.368;2023-02-12T00:03:16;12.25;;;6.82;;
10945;SDS011;5525;42.648;23.368;2023-02-12T00:05:42;9.93;;;6.60;;
10945;SDS011;5525;42.648;23.368;2023-02-12T00:08:09;11.43;;;6.65;;
10945;SDS011;5525;42.648;23.368;2023-02-12T00:10:38;12.65;;;6.75;;
10945;SDS011;5525;42.648;23.368;2023-02-12T00:13:05;11.63;;;6.93;;
10945;SDS011;5525;42.648;23.368;2023-02-12T00:15:32;12.38;;;7.40;;
10945;SDS011;5525;42.648;23.368;2023-02-12T00:18:00;11.85;;;7.00;;
10945;SDS011;5525;42.648;23.368;2023-02-12T00:20:27;11.02;;;7.15;;
10945;SDS011;5525;42.648;23.368;2023-02-12T00:22:54;11.05;;;6.90;;
10945;SDS011;5525;42.648;23.368;2023-02-12T00:25:20;11.73;;;7.10;;
10945;SDS011;5525;42.648;23.368;2023-02-12T00:27:47;10.30;;;6.13;;
10945;SDS011;5525;42.648;23.368;2023-02-12T00:30:14;11.98;;;6.72;;
10945;SDS011;5525;42.648;23.368;2023-02-12T00:32:41;10.80;;;6.25;;
10945;SDS011;5525;42.648;23.368;2023-02-12T00:35:11;11.57;;;6.65;;
10945;SDS011;5525;42.648;23.368;2023-02-12T00:37:38;10.00;;;6.25;;
10945;SDS011;5525;42.648;23.368;2023-02-12T00:40:05;11.82;;;6.88;;
10945;SDS011;5525;42.648;23.368;2023-02-12T00:42:33;9.93;;;6.43;;
10945;SDS011;5525;42.648;23.368;2023-02-12T00:44:59;11.13;;;6.60;;
10945;SDS011;5525;42.648;23.368;2023-02-12T00:47:26;10.50;;;6.30;;
10945;SDS011;5525;42.648;23.368;2023-02-12T00:49:53;15.10;;;7.47;;
10945;SDS011;5525;42.648;23.368;2023-02-12T00:52:21;10.77;;;6.82;;
10945;SDS011;5525;42.648;23.368;2023-02-12T00:54:48;11.90;;;6.93;;
10945;SDS011;5525;42.648;23.368;2023-02-12T00:57:15;10.30;;;6.55;;
10945;SDS011;5525;42.648;23.368;2023-02-12T00:59:41;9.50;;;6.78;;
10945;SDS011;5525;42.648;23.368;2023-02-12T01:02:08;9.93;;;6.55;;
10945;SDS011;5525;42.648;23.368;2023-02-12T01:04:35;10.05;;;6.22;;
10945;SDS011;5525;42.648;23.368;2023-02-12T01:07:01;7.97;;;6.07;;
10945;SDS011;5525;42.648;23.368;2023-02-12T01:09:30;9.02;;;5.75;;
10945;SDS011;5525;42.648;23.368;2023-02-12T01:11:56;9.30;;;6.15;;
10945;SDS011;5525;42.648;23.368;2023-02-12T01:14:23;10.57;;;6.13;;
10945;SDS011;5525;42.648;23.368;2023-02-12T01:16:50;11.25;;;7.22;;
10945;SDS011;5525;42.648;23.368;2023-02-12T01:19:17;12.63;;;7.32;;
10945;SDS011;5525;42.648;23.368;2023-02-12T01:21:43;12.25;;;6.82;;
10945;SDS011;5525;42.648;23.368;2023-02-12T01:24:11;9.40;;;5.82;;
10945;SDS011;5525;42.648;23.368;2023-02-12T01:26:39;10.30;;;6.75;;
10945;SDS011;5525;42.648;23.368;2023-02-12T01:29:06;10.45;;;6.72;;
10945;SDS011;5525;42.648;23.368;2023-02-12T01:31:34;10.05;;;6.55;;
10945;SDS011;5525;42.648;23.368;2023-02-12T01:34:03;11.30;;;6.55;;
10945;SDS011;5525;42.648;23.368;2023-02-12T01:36:31;11.98;;;7.28;;
10945;SDS011;5525;42.648;23.368;2023-02-12T01:38:58;12.95;;;7.55;;
10945;SDS011;5525;42.648;23.368;2023-02-12T01:41:28;9.32;;;6.90;;
10945;SDS011;5525;42.648;23.368;2023-02-12T01:44:15;13.50;;;7.68;;
10945;SDS011;5525;42.648;23.368;2023-02-12T01:46:43;10.52;;;7.47;;
10945;SDS011;5525;42.648;23.368;2023-02-12T01:49:13;12.43;;;7.82;;
10945;SDS011;5525;42.648;23.368;2023-02-12T01:51:46;13.18;;;7.28;;
10945;SDS011;5525;42.648;23.368;2023-02-12T01:54:16;13.13;;;7.63;;
10945;SDS011;5525;42.648;23.368;2023-02-12T01:56:47;11.07;;;5.72;;
10945;SDS011;5525;42.648;23.368;2023-02-12T01:59:16;13.40;;;7.32;;
10945;SDS011;5525;42.648;23.368;2023-02-12T02:01:45;11.00;;;7.20;;
10945;SDS011;5525;42.648;23.368;2023-02-12T02:04:12;10.85;;;7.40;;
10945;SDS011;5525;42.648;23.368;2023-02-12T02:06:44;10.73;;;6.85;;
10945;SDS011;5525;42.648;23.368;2023-02-12T02:09:14;11.55;;;7.47;;
10945;SDS011;5525;42.648;23.368;2023-02-12T02:11:42;13.77;;;7.72;;
10945;SDS011;5525;42.648;23.368;2023-02-12T02:14:27;13.20;;;7.97;;
10945;SDS011;5525;42.648;23.368;2023-02-12T02:17:00;11.60;;;7.07;;
10945;SDS011;5525;42.648;23.368;2023-02-12T02:19:42;11.80;;;8.05;;
10945;SDS011;5525;42.648;23.368;2023-02-12T02:22:24;12.00;;;8.23;;
10945;SDS011;5525;42.648;23.368;2023-02-12T02:25:14;13.93;;;8.57;;
10945;SDS011;5525;42.648;23.368;2023-02-12T02:28:00;15.00;;;8.95;;
10945;SDS011;5525;42.648;23.368;2023-02-12T02:30:40;18.05;;;9.43;;
10945;SDS011;5525;42.648;23.368;2023-02-12T02:33:17;16.08;;;9.57;;
10945;SDS011;5525;42.648;23.368;2023-02-12T02:35:52;14.43;;;8.75;;
10945;SDS011;5525;42.648;23.368;2023-02-12T02:38:27;16.42;;;9.32;;
10945;SDS011;5525;42.648;23.368;2023-02-12T02:41:01;12.93;;;7.50;;
10945;SDS011;5525;42.648;23.368;2023-02-12T02:43:33;15.25;;;8.65;;
10945;SDS011;5525;42.648;23.368;2023-02-12T02:46:06;13.00;;;7.65;;
10945;SDS011;5525;42.648;23.368;2023-02-12T02:48:36;14.45;;;8.30;;
10945;SDS011;5525;42.648;23.368;2023-02-12T02:51:08;13.27;;;7.60;;
10945;SDS011;5525;42.648;23.368;2023-02-12T02:53:41;16.23;;;9.05;;
10945;SDS011;5525;42.648;23.368;2023-02-12T02:56:12;11.88;;;7.75;;
10945;SDS011;5525;42.648;23.368;2023-02-12T02:58:43;14.27;;;8.52;;
10945;SDS011;5525;42.648;23.368;2023-02-12T03:01:16;13.60;;;8.68;;
10945;SDS011;5525;42.648;23.368;2023-02-12T03:03:46;13.07;;;8.20;;
10945;SDS011;5525;42.648;23.368;2023-02-12T03:06:19;15.05;;;8.75;;
10945;SDS011;5525;42.648;23.368;2023-02-12T03:08:51;17.50;;;9.07;;
10945;SDS011;5525;42.648;23.368;2023-02-12T03:11:23;15.68;;;8.95;;
10945;SDS011;5525;42.648;23.368;2023-02-12T03:13:54;13.55;;;8.85;;
10945;SDS011;5525;42.648;23.368;2023-02-12T03:16:26;13.88;;;8.82;;
10945;SDS011;5525;42.648;23.368;2023-02-12T03:18:57;14.25;;;9.60;;
10945;SDS011;5525;42.648;23.368;2023-02-12T03:21:32;16.17;;;8.77;;
10945;SDS011;5525;42.648;23.368;2023-02-12T03:24:04;16.27;;;9.70;;
10945;SDS011;5525;42.648;23.368;2023-02-12T03:26:38;16.83;;;10.02;;
10945;SDS011;5525;42.648;23.368;2023-02-12T03:29:10;14.93;;;9.60;;
10945;SDS011;5525;42.648;23.368;2023-02-12T03:31:43;15.93;;;9.98;;
10945;SDS011;5525;42.648;23.368;2023-02-12T03:34:22;18.25;;;10.80;;
10945;SDS011;5525;42.648;23.368;2023-02-12T03:36:55;15.35;;;10.38;;
10945;SDS011;5525;42.648;23.368;2023-02-12T03:39:28;16.42;;;10.45;;
10945;SDS011;5525;42.648;23.368;2023-02-12T03:42:08;20.83;;;10.15;;
10945;SDS011;5525;42.648;23.368;2023-02-12T03:44:43;14.65;;;9.75;;
10945;SDS011;5525;42.648;23.368;2023-02-12T03:47:19;15.25;;;9.23;;
10945;SDS011;5525;42.648;23.368;2023-02-12T03:49:52;15.90;;;9.80;;
10945;SDS011;5525;42.648;23.368;2023-02-12T03:52:24;18.73;;;10.50;;
10945;SDS011;5525;42.648;23.368;2023-02-12T03:54:51;15.20;;;9.60;;
10945;SDS011;5525;42.648;23.368;2023-02-12T03:57:19;15.25;;;9.70;;
10945;SDS011;5525;42.648;23.368;2023-02-12T03:59:47;19.27;;;10.27;;
10945;SDS011;5525;42.648;23.368;2023-02-12T04:02:17;17.95;;;11.30;;
10945;SDS011;5525;42.648;23.368;2023-02-12T04:04:45;16.63;;;10.90;;
10945;SDS011;5525;42.648;23.368;2023-02-12T04:07:13;17.85;;;10.68;;
10945;SDS011;5525;42.648;23.368;2023-02-12T04:09:41;16.25;;;10.00;;
10945;SDS011;5525;42.648;23.368;2023-02-12T04:12:13;16.10;;;10.45;;
10945;SDS011;5525;42.648;23.368;2023-02-12T04:14:52;17.40;;;10.02;;
10945;SDS011;5525;42.648;23.368;2023-02-12T04:17:30;17.15;;;10.80;;
10945;SDS011;5525;42.648;23.368;2023-02-12T04:20:14;17.70;;;10.25;;
10945;SDS011;5525;42.648;23.368;2023-02-12T04:22:51;17.13;;;10.55;;
10945;SDS011;5525;42.648;23.368;2023-02-12T04:25:29;18.17;;;10.65;;
10945;SDS011;5525;42.648;23.368;2023-02-12T04:28:09;17.50;;;10.77;;
10945;SDS011;5525;42.648;23.368;2023-02-12T04:30:44;18.60;;;11.55;;
10945;SDS011;5525;42.648;23.368;2023-02-12T04:33:15;18.50;;;10.98;;
10945;SDS011;5525;42.648;23.368;2023-02-12T04:35:47;18.30;;;10.88;;
10945;SDS011;5525;42.648;23.368;2023-02-12T04:38:18;17.65;;;10.73;;
10945;SDS011;5525;42.648;23.368;2023-02-12T04:40:48;18.55;;;10.85;;
10945;SDS011;5525;42.648;23.368;2023-02-12T04:43:24;17.92;;;10.88;;
10945;SDS011;5525;42.648;23.368;2023-02-12T04:45:52;18.15;;;10.55;;
10945;SDS011;5525;42.648;23.368;2023-02-12T04:48:21;19.05;;;11.40;;
10945;SDS011;5525;42.648;23.368;2023-02-12T04:50:48;18.17;;;11.05;;
10945;SDS011;5525;42.648;23.368;2023-02-12T04:53:15;18.55;;;11.07;;
10945;SDS011;5525;42.648;23.368;2023-02-12T04:55:41;17.67;;;11.35;;
10945;SDS011;5525;42.648;23.368;2023-02-12T04:58:08;16.83;;;10.63;;
10945;SDS011;5525;42.648;23.368;2023-02-12T05:00:35;16.63;;;11.23;;
10945;SDS011;5525;42.648;23.368;2023-02-12T05:03:02;19.20;;;10.85;;
10945;SDS011;5525;42.648;23.368;2023-02-12T05:05:31;16.52;;;10.77;;
10945;SDS011;5525;42.648;23.368;2023-02-12T05:07:58;19.00;;;10.70;;
10945;SDS011;5525;42.648;23.368;2023-02-12T05:10:25;18.52;;;11.00;;
10945;SDS011;5525;42.648;23.368;2023-02-12T05:12:51;15.10;;;9.77;;
10945;SDS011;5525;42.648;23.368;2023-02-12T05:15:18;16.05;;;10.77;;
10945;SDS011;5525;42.648;23.368;2023-02-12T05:17:45;16.77;;;9.98;;
10945;SDS011;5525;42.648;23.368;2023-02-12T05:20:12;14.68;;;9.23;;
10945;SDS011;5525;42.648;23.368;2023-02-12T05:22:41;15.50;;;9.85;;
10945;SDS011;5525;42.648;23.368;2023-02-12T05:25:07;15.68;;;9.75;;
10945;SDS011;5525;42.648;23.368;2023-02-12T05:27:34;17.20;;;8.95;;
10945;SDS011;5525;42.648;23.368;2023-02-12T05:30:01;14.95;;;9.18;;
10945;SDS011;5525;42.648;23.368;2023-02-12T05:32:29;14.02;;;7.93;;
10945;SDS011;5525;42.648;23.368;2023-02-12T05:34:56;14.23;;;8.40;;
10945;SDS011;5525;42.648;23.368;2023-02-12T05:37:23;15.18;;;8.65;;
10945;SDS011;5525;42.648;23.368;2023-02-12T05:39:51;16.95;;;8.23;;
10945;SDS011;5525;42.648;23.368;2023-02-12T05:42:18;17.08;;;8.57;;
10945;SDS011;5525;42.648;23.368;2023-02-12T05:44:45;13.95;;;8.50;;
10945;SDS011;5525;42.648;23.368;2023-02-12T05:47:11;13.60;;;7.35;;
10945;SDS011;5525;42.648;23.368;2023-02-12T05:49:38;14.40;;;8.27;;
10945;SDS011;5525;42.648;23.368;2023-02-12T05:52:05;14.02;;;8.43;;
10945;SDS011;5525;42.648;23.368;2023-02-12T05:54:32;11.80;;;7.55;;
10945;SDS011;5525;42.648;23.368;2023-02-12T05:57:00;14.77;;;9.18;;
10945;SDS011;5525;42.648;23.368;2023-02-12T05:59:26;15.27;;;8.57;;
10945;SDS011;5525;42.648;23.368;2023-02-12T06:01:53;18.33;;;9.70;;
10945;SDS011;5525;42.648;23.368;2023-02-12T06:04:20;17.50;;;10.02;;
10945;SDS011;5525;42.648;23.368;2023-02-12T06:06:49;16.73;;;9.50;;
10945;SDS011;5525;42.648;23.368;2023-02-12T06:09:16;17.65;;;9.50;;
10945;SDS011;5525;42.648;23.368;2023-02-12T06:11:43;15.35;;;9.55;;
10945;SDS011;5525;42.648;23.368;2023-02-12T06:14:13;15.80;;;9.23;;
10945;SDS011;5525;42.648;23.368;2023-02-12T06:16:42;18.63;;;9.63;;
10945;SDS011;5525;42.648;23.368;2023-02-12T06:19:10;15.45;;;9.18;;
10945;SDS011;5525;42.648;23.368;2023-02-12T06:21:38;16.05;;;8.98;;
10945;SDS011;5525;42.648;23.368;2023-02-12T06:24:05;16.20;;;9.07;;
10945;SDS011;5525;42.648;23.368;2023-02-12T06:26:31;12.88;;;7.30;;
10945;SDS011;5525;42.648;23.368;2023-02-12T06:28:59;15.73;;;8.40;;
10945;SDS011;5525;42.648;23.368;2023-02-12T06:31:28;13.30;;;8.50;;
10945;SDS011;5525;42.648;23.368;2023-02-12T06:33:57;14.80;;;8.85;;
10945;SDS011;5525;42.648;23.368;2023-02-12T06:36:25;13.75;;;8.55;;
10945;SDS011;5525;42.648;23.368;2023-02-12T06:38:52;14.65;;;8.32;;
10945;SDS011;5525;42.648;23.368;2023-02-12T06:41:20;13.27;;;8.02;;
10945;SDS011;5525;42.648;23.368;2023-02-12T06:43:47;15.35;;;8.77;;
10945;SDS011;5525;42.648;23.368;2023-02-12T06:46:14;14.13;;;8.77;;
10945;SDS011;5525;42.648;23.368;2023-02-12T06:48:42;16.33;;;8.77;;
10945;SDS011;5525;42.648;23.368;2023-02-12T06:51:10;13.95;;;8.27;;
10945;SDS011;5525;42.648;23.368;2023-02-12T06:53:39;15.73;;;9.27;;
10945;SDS011;5525;42.648;23.368;2023-02-12T06:56:06;14.07;;;9.00;;
10945;SDS011;5525;42.648;23.368;2023-02-12T06:58:35;14.27;;;8.30;;
10945;SDS011;5525;42.648;23.368;2023-02-12T07:01:09;13.82;;;8.27;;
10945;SDS011;5525;42.648;23.368;2023-02-12T07:03:37;13.50;;;7.90;;
10945;SDS011;5525;42.648;23.368;2023-02-12T07:06:06;14.85;;;7.85;;
10945;SDS011;5525;42.648;23.368;2023-02-12T07:08:34;12.43;;;7.88;;
10945;SDS011;5525;42.648;23.368;2023-02-12T07:11:02;15.25;;;8.63;;
10945;SDS011;5525;42.648;23.368;2023-02-12T07:13:28;13.93;;;8.50;;
10945;SDS011;5525;42.648;23.368;2023-02-12T07:15:55;14.73;;;8.93;;
10945;SDS011;5525;42.648;23.368;2023-02-12T07:18:22;15.10;;;9.00;;
10945;SDS011;5525;42.648;23.368;2023-02-12T07:20:49;15.05;;;9.15;;
10945;SDS011;5525;42.648;23.368;2023-02-12T07:23:17;16.40;;;9.52;;
10945;SDS011;5525;42.648;23.368;2023-02-12T07:25:47;13.57;;;8.75;;
10945;SDS011;5525;42.648;23.368;2023-02-12T07:28:20;14.40;;;8.32;;
10945;SDS011;5525;42.648;23.368;2023-02-12T07:30:46;15.32;;;9.00;;
10945;SDS011;5525;42.648;23.368;2023-02-12T07:33:13;17.15;;;9.43;;
10945;SDS011;5525;42.648;23.368;2023-02-12T07:35:40;14.02;;;8.55;;
10945;SDS011;5525;42.648;23.368;2023-02-12T07:38:07;18.48;;;9.40;;
10945;SDS011;5525;42.648;23.368;2023-02-12T07:40:35;15.02;;;9.88;;
10945;SDS011;5525;42.648;23.368;2023-02-12T07:43:02;16.50;;;10.13;;
10945;SDS011;5525;42.648;23.368;2023-02-12T07:45:28;17.85;;;10.05;;
10945;SDS011;5525;42.648;23.368;2023-02-12T07:47:55;16.15;;;9.57;;
10945;SDS011;5525;42.648;23.368;2023-02-12T07:50:22;16.20;;;10.32;;
10945;SDS011;5525;42.648;23.368;2023-02-12T07:52:48;15.57;;;9.77;;
10945;SDS011;5525;42.648;23.368;2023-02-12T07:55:16;17.23;;;10.57;;
10945;SDS011;5525;42.648;23.368;2023-02-12T07:57:45;20.48;;;11.02;;
10945;SDS011;5525;42.648;23.368;2023-02-12T08:00:12;15.98;;;10.50;;
10945;SDS011;5525;42.648;23.368;2023-02-12T08:02:40;18.48;;;11.20;;
10945;SDS011;5525;42.648;23.368;2023-02-12T08:05:07;16.10;;;10.43;;
10945;SDS011;5525;42.648;23.368;2023-02-12T08:07:33;18.88;;;11.05;;
10945;SDS011;5525;42.648;23.368;2023-02-12T08:10:00;21.02;;;11.57;;
10945;SDS011;5525;42.648;23.368;2023-02-12T08:12:27;19.83;;;11.18;;
10945;SDS011;5525;42.648;23.368;2023-02-12T08:14:55;19.67;;;11.57;;
10945;SDS011;5525;42.648;23.368;2023-02-12T08:17:22;18.92;;;11.23;;
10945;SDS011;5525;42.648;23.368;2023-02-12T08:19:49;21.00;;;11.57;;
10945;SDS011;5525;42.648;23.368;2023-02-12T08:22:15;16.40;;;10.80;;
10945;SDS011;5525;42.648;23.368;2023-02-12T08:24:43;19.67;;;11.88;;
10945;SDS011;5525;42.648;23.368;2023-02-12T08:27:09;20.23;;;11.65;;
10945;SDS011;5525;42.648;23.368;2023-02-12T08:29:36;25.30;;;14.18;;
10945;SDS011;5525;42.648;23.368;2023-02-12T08:32:04;23.00;;;13.57;;
10945;SDS011;5525;42.648;23.368;2023-02-12T08:34:34;19.58;;;12.10;;
10945;SDS011;5525;42.648;23.368;2023-02-12T08:37:03;17.17;;;11.05;;
10945;SDS011;5525;42.648;23.368;2023-02-12T08:39:31;20.20;;;12.65;;
10945;SDS011;5525;42.648;23.368;2023-02-12T08:41:59;19.73;;;12.65;;
10945;SDS011;5525;42.648;23.368;2023-02-12T08:44:26;21.75;;;12.82;;
10945;SDS011;5525;42.648;23.368;2023-02-12T08:46:53;21.17;;;13.60;;
10945;SDS011;5525;42.648;23.368;2023-02-12T08:49:22;23.73;;;13.32;;
10945;SDS011;5525;42.648;23.368;2023-02-12T08:51:51;20.90;;;13.90;;
10945;SDS011;5525;42.648;23.368;2023-02-12T08:54:19;22.67;;;14.20;;
10945;SDS011;5525;42.648;23.368;2023-02-12T08:56:48;21.90;;;13.55;;
10945;SDS011;5525;42.648;23.368;2023-02-12T08:59:15;21.27;;;13.60;;
10945;SDS011;5525;42.648;23.368;2023-02-12T09:01:42;21.90;;;13.15;;
10945;SDS011;5525;42.648;23.368;2023-02-12T09:04:11;18.63;;;12.40;;
10945;SDS011;5525;42.648;23.368;2023-02-12T09:06:43;21.63;;;12.80;;
10945;SDS011;5525;42.648;23.368;2023-02-12T09:09:11;19.35;;;12.70;;
10945;SDS011;5525;42.648;23.368;2023-02-12T09:11:38;18.33;;;11.85;;
10945;SDS011;5525;42.648;23.368;2023-02-12T09:14:06;19.88;;;13.52;;
10945;SDS011;5525;42.648;23.368;2023-02-12T09:16:36;19.90;;;12.57;;
10945;SDS011;5525;42.648;23.368;2023-02-12T09:19:03;22.92;;;13.30;;
10945;SDS011;5525;42.648;23.368;2023-02-12T09:21:30;21.23;;;13.68;;
10945;SDS011;5525;42.648;23.368;2023-02-12T09:23:59;20.35;;;11.95;;
10945;SDS011;5525;42.648;23.368;2023-02-12T09:26:27;22.30;;;13.50;;
10945;SDS011;5525;42.648;23.368;2023-02-12T09:28:54;22.40;;;13.25;;
10945;SDS011;5525;42.648;23.368;2023-02-12T09:31:22;24.58;;;15.05;;
10945;SDS011;5525;42.648;23.368;2023-02-12T09:33:51;20.52;;;12.52;;
10945;SDS011;5525;42.648;23.368;2023-02-12T09:36:18;24.45;;;13.95;;
10945;SDS011;5525;42.648;23.368;2023-02-12T09:38:46;22.45;;;12.98;;
10945;SDS011;5525;42.648;23.368;2023-02-12T09:41:19;22.05;;;13.02;;
10945;SDS011;5525;42.648;23.368;2023-02-12T09:44:08;19.52;;;12.55;;
10945;SDS011;5525;42.648;23.368;2023-02-12T09:46:41;23.50;;;14.30;;
10945;SDS011;5525;42.648;23.368;2023-02-12T09:49:18;20.42;;;13.75;;
10945;SDS011;5525;42.648;23.368;2023-02-12T09:52:11;23.52;;;14.18;;
10945;SDS011;5525;42.648;23.368;2023-02-12T09:54:41;22.38;;;14.57;;
10945;SDS011;5525;42.648;23.368;2023-02-12T09:57:13;22.50;;;14.35;;
10945;SDS011;5525;42.648;23.368;2023-02-12T09:59:46;21.50;;;13.95;;
10945;SDS011;5525;42.648;23.368;2023-02-12T10:02:18;25.35;;;15.18;;
10945;SDS011;5525;42.648;23.368;2023-02-12T10:04:47;27.13;;;14.57;;
10945;SDS011;5525;42.648;23.368;2023-02-12T10:07:17;22.80;;;14.50;;
10945;SDS011;5525;42.648;23.368;2023-02-12T10:10:02;24.23;;;14.45;;
10945;SDS011;5525;42.648;23.368;2023-02-12T10:12:44;22.60;;;14.65;;
10945;SDS011;5525;42.648;23.368;2023-02-12T10:15:20;21.42;;;13.00;;
10945;SDS011;5525;42.648;23.368;2023-02-12T10:18:01;23.40;;;13.80;;
10945;SDS011;5525;42.648;23.368;2023-02-12T10:20:47;20.83;;;13.52;;
10945;SDS011;5525;42.648;23.368;2023-02-12T10:23:26;22.35;;;14.23;;
10945;SDS011;5525;42.648;23.368;2023-02-12T10:26:15;24.25;;;15.40;;
10945;SDS011;5525;42.648;23.368;2023-02-12T10:28:51;21.17;;;13.63;;
10945;SDS011;5525;42.648;23.368;2023-02-12T10:31:20;28.38;;;16.58;;
10945;SDS011;5525;42.648;23.368;2023-02-12T10:33:53;22.98;;;15.15;;
10945;SDS011;5525;42.648;23.368;2023-02-12T10:36:26;26.83;;;16.15;;
10945;SDS011;5525;42.648;23.368;2023-02-12T10:39:00;29.05;;;17.40;;
10945;SDS011;5525;42.648;23.368;2023-02-12T10:41:31;27.60;;;17.30;;
10945;SDS011;5525;42.648;23.368;2023-02-12T10:44:08;24.40;;;15.80;;
10945;SDS011;5525;42.648;23.368;2023-02-12T10:46:36;28.55;;;16.83;;
10945;SDS011;5525;42.648;23.368;2023-02-12T10:49:03;27.67;;;15.68;;
10945;SDS011;5525;42.648;23.368;2023-02-12T10:51:35;28.10;;;16.80;;
10945;SDS011;5525;42.648;23.368;2023-02-12T10:56:57;31.45;;;18.08;;
10945;SDS011;5525;42.648;23.368;2023-02-12T10:59:26;28.63;;;17.90;;
10945;SDS011;5525;42.648;23.368;2023-02-12T11:01:54;28.48;;;17.58;;
10945;SDS011;5525;42.648;23.368;2023-02-12T11:04:23;28.63;;;18.25;;
10945;SDS011;5525;42.648;23.368;2023-02-12T11:06:56;29.95;;;17.83;;
10945;SDS011;5525;42.648;23.368;2023-02-12T11:09:28;26.90;;;16.63;;
10945;SDS011;5525;42.648;23.368;2023-02-12T11:11:56;29.48;;;17.85;;
10945;SDS011;5525;42.648;23.368;2023-02-12T11:14:23;26.55;;;17.70;;
10945;SDS011;5525;42.648;23.368;2023-02-12T11:16:52;28.80;;;16.80;;
10945;SDS011;5525;42.648;23.368;2023-02-12T11:19:21;32.80;;;18.25;;
10945;SDS011;5525;42.648;23.368;2023-02-12T11:21:49;25.88;;;17.10;;
10945;SDS011;5525;42.648;23.368;2023-02-12T11:24:27;23.40;;;16.52;;
10945;SDS011;5525;42.648;23.368;2023-02-12T11:27:10;27.35;;;17.17;;
10945;SDS011;5525;42.648;23.368;2023-02-12T11:29:45;27.35;;;17.02;;
10945;SDS011;5525;42.648;23.368;2023-02-12T11:32:16;28.48;;;18.17;;
10945;SDS011;5525;42.648;23.368;2023-02-12T11:34:45;24.42;;;16.88;;
10945;SDS011;5525;42.648;23.368;2023-02-12T11:37:31;27.25;;;17.58;;
10945;SDS011;5525;42.648;23.368;2023-02-12T11:40:00;24.52;;;16.15;;
10945;SDS011;5525;42.648;23.368;2023-02-12T11:42:27;27.80;;;17.08;;
10945;SDS011;5525;42.648;23.368;2023-02-12T11:45:00;28.88;;;17.48;;
10945;SDS011;5525;42.648;23.368;2023-02-12T11:47:30;25.58;;;16.30;;
10945;SDS011;5525;42.648;23.368;2023-02-12T11:50:02;26.90;;;17.67;;
10945;SDS011;5525;42.648;23.368;2023-02-12T11:52:34;27.13;;;18.48;;
10945;SDS011;5525;42.648;23.368;2023-02-12T11:55:03;28.33;;;17.63;;
10945;SDS011;5525;42.648;23.368;2023-02-12T11:57:33;26.58;;;16.67;;
10945;SDS011;5525;42.648;23.368;2023-02-12T12:00:02;26.50;;;16.45;;
10945;SDS011;5525;42.648;23.368;2023-02-12T12:02:35;26.70;;;16.98;;
10945;SDS011;5525;42.648;23.368;2023-02-12T12:05:07;26.60;;;16.95;;
10945;SDS011;5525;42.648;23.368;2023-02-12T12:07:37;28.08;;;18.25;;
10945;SDS011;5525;42.648;23.368;2023-02-12T12:10:11;26.95;;;17.17;;
10945;SDS011;5525;42.648;23.368;2023-02-12T12:12:44;24.70;;;16.80;;
10945;SDS011;5525;42.648;23.368;2023-02-12T12:15:18;31.55;;;18.23;;
10945;SDS011;5525;42.648;23.368;2023-02-12T12:18:11;29.23;;;18.50;;
10945;SDS011;5525;42.648;23.368;2023-02-12T12:21:07;29.52;;;18.00;;
10945;SDS011;5525;42.648;23.368;2023-02-12T12:23:39;27.73;;;18.05;;
10945;SDS011;5525;42.648;23.368;2023-02-12T12:26:10;28.88;;;17.98;;
10945;SDS011;5525;42.648;23.368;2023-02-12T12:28:43;28.45;;;18.15;;
10945;SDS011;5525;42.648;23.368;2023-02-12T12:31:13;30.90;;;18.95;;
10945;SDS011;5525;42.648;23.368;2023-02-12T12:33:45;28.13;;;18.08;;
10945;SDS011;5525;42.648;23.368;2023-02-12T12:39:27;27.52;;;18.15;;
10945;SDS011;5525;42.648;23.368;2023-02-12T12:44:59;29.42;;;18.90;;
10945;SDS011;5525;42.648;23.368;2023-02-12T12:47:43;31.70;;;18.35;;
10945;SDS011;5525;42.648;23.368;2023-02-12T12:50:24;26.58;;;16.98;;
10945;SDS011;5525;42.648;23.368;2023-02-12T12:53:06;24.10;;;16.55;;
10945;SDS011;5525;42.648;23.368;2023-02-12T12:58:38;24.00;;;16.08;;
10945;SDS011;5525;42.648;23.368;2023-02-12T13:04:30;29.98;;;18.52;;
10945;SDS011;5525;42.648;23.368;2023-02-12T13:07:18;26.98;;;17.20;;
10945;SDS011;5525;42.648;23.368;2023-02-12T13:10:05;29.13;;;17.80;;
10945;SDS011;5525;42.648;23.368;2023-02-12T13:12:48;33.42;;;18.80;;
10945;SDS011;5525;42.648;23.368;2023-02-12T13:15:25;25.27;;;16.80;;
10945;SDS011;5525;42.648;23.368;2023-02-12T13:18:00;28.75;;;17.95;;
10945;SDS011;5525;42.648;23.368;2023-02-12T13:20:38;28.73;;;18.10;;
10945;SDS011;5525;42.648;23.368;2023-02-12T13:23:15;27.60;;;17.40;;
10945;SDS011;5525;42.648;23.368;2023-02-12T13:25:48;25.27;;;17.67;;
10945;SDS011;5525;42.648;23.368;2023-02-12T13:28:24;27.65;;;17.45;;
10945;SDS011;5525;42.648;23.368;2023-02-12T13:30:57;26.13;;;17.77;;
10945;SDS011;5525;42.648;23.368;2023-02-12T13:33:31;26.92;;;17.10;;
10945;SDS011;5525;42.648;23.368;2023-02-12T13:36:07;28.17;;;18.02;;
10945;SDS011;5525;42.648;23.368;2023-02-12T13:38:39;31.00;;;18.55;;
10945;SDS011;5525;42.648;23.368;2023-02-12T13:41:09;28.50;;;18.55;;
10945;SDS011;5525;42.648;23.368;2023-02-12T13:43:40;28.50;;;18.48;;
10945;SDS011;5525;42.648;23.368;2023-02-12T13:46:14;32.22;;;22.30;;
10945;SDS011;5525;42.648;23.368;2023-02-12T13:48:51;28.95;;;17.88;;
10945;SDS011;5525;42.648;23.368;2023-02-12T13:51:28;25.38;;;16.95;;
10945;SDS011;5525;42.648;23.368;2023-02-12T13:54:09;30.80;;;19.02;;
10945;SDS011;5525;42.648;23.368;2023-02-12T13:56:43;27.63;;;17.58;;
10945;SDS011;5525;42.648;23.368;2023-02-12T14:02:05;27.35;;;18.48;;
10945;SDS011;5525;42.648;23.368;2023-02-12T14:04:53;28.20;;;18.88;;
10945;SDS011;5525;42.648;23.368;2023-02-12T14:07:21;32.72;;;18.88;;
10945;SDS011;5525;42.648;23.368;2023-02-12T14:10:00;28.95;;;18.63;;
10945;SDS011;5525;42.648;23.368;2023-02-12T14:12:31;27.65;;;18.30;;
10945;SDS011;5525;42.648;23.368;2023-02-12T14:15:05;30.45;;;18.98;;
10945;SDS011;5525;42.648;23.368;2023-02-12T14:17:48;30.80;;;19.90;;
10945;SDS011;5525;42.648;23.368;2023-02-12T14:20:20;32.40;;;20.90;;
10945;SDS011;5525;42.648;23.368;2023-02-12T14:22:56;31.02;;;20.77;;
10945;SDS011;5525;42.648;23.368;2023-02-12T14:25:31;31.27;;;20.55;;
10945;SDS011;5525;42.648;23.368;2023-02-12T14:28:11;32.28;;;21.08;;
10945;SDS011;5525;42.648;23.368;2023-02-12T14:31:16;32.75;;;22.17;;
10945;SDS011;5525;42.648;23.368;2023-02-12T14:33:47;33.13;;;20.38;;
10945;SDS011;5525;42.648;23.368;2023-02-12T14:36:16;32.47;;;21.25;;
10945;SDS011;5525;42.648;23.368;2023-02-12T14:38:56;34.72;;;22.45;;
10945;SDS011;5525;42.648;23.368;2023-02-12T14:41:26;31.88;;;21.00;;
10945;SDS011;5525;42.648;23.368;2023-02-12T14:47:03;31.50;;;20.08;;
10945;SDS011;5525;42.648;23.368;2023-02-12T14:49:33;36.05;;;21.25;;
10945;SDS011;5525;42.648;23.368;2023-02-12T14:52:03;33.58;;;20.05;;
10945;SDS011;5525;42.648;23.368;2023-02-12T14:54:40;34.58;;;21.25;;
10945;SDS011;5525;42.648;23.368;2023-02-12T14:57:11;35.03;;;20.85;;
10945;SDS011;5525;42.648;23.368;2023-02-12T14:59:48;34.13;;;20.17;;
10945;SDS011;5525;42.648;23.368;2023-02-12T15:02:19;32.90;;;21.10;;
10945;SDS011;5525;42.648;23.368;2023-02-12T15:04:50;33.55;;;20.92;;
10945;SDS011;5525;42.648;23.368;2023-02-12T15:07:21;32.20;;;21.42;;
10945;SDS011;5525;42.648;23.368;2023-02-12T15:09:56;32.55;;;21.02;;
10945;SDS011;5525;42.648;23.368;2023-02-12T15:12:33;36.40;;;21.77;;